This is the latest recevied weather packets stored in our database for station/object YO6SAY-10. If no packets are shown the sender has not sent any weather packets the latest 10 day(s).
| Time | Temp. | Humidity | Pressure | Rain* | Wind** | Luminosity | Snow |
|---|---|---|---|---|---|---|---|
| 1777129931 | 30° C | 32% | 945.3 hPa | - | - | - | - |
| 1777129030 | 31.67° C | 31% | 945.6 hPa | - | - | - | - |
| 1777128130 | 31.67° C | 33% | 945.6 hPa | - | - | - | - |
| 1777127230 | 30° C | 35% | 945.6 hPa | - | - | - | - |
| 1777126330 | 26.67° C | 39% | 945.7 hPa | - | - | - | - |
| 1777125430 | 24.44° C | 42% | 945.8 hPa | - | - | - | - |
| 1777124529 | 23.33° C | 44% | 946 hPa | - | - | - | - |
| 1777123629 | 22.78° C | 43% | 946 hPa | - | - | - | - |
| 1777122729 | 21.11° C | 45% | 946.1 hPa | - | - | - | - |
| 1777121829 | 20.56° C | 45% | 946.2 hPa | - | - | - | - |
| 1777120929 | 20.56° C | 45% | 946.4 hPa | - | - | - | - |
| 1777120029 | 20° C | 45% | 946.7 hPa | - | - | - | - |
| 1777119128 | 18.89° C | 45% | 946.8 hPa | - | - | - | - |
| 1777118228 | 17.78° C | 46% | 946.8 hPa | - | - | - | - |
| 1777117328 | 17.22° C | 46% | 947 hPa | - | - | - | - |
| 1777116428 | 16.67° C | 46% | 947.1 hPa | - | - | - | - |
| 1777115528 | 16.11° C | 45% | 947.2 hPa | - | - | - | - |
| 1777114628 | 16.11° C | 45% | 947.4 hPa | - | - | - | - |
| 1777113728 | 15.56° C | 46% | 947.5 hPa | - | - | - | - |
| 1777112828 | 15° C | 46% | 947.8 hPa | - | - | - | - |
| 1777111927 | 15° C | 47% | 947.8 hPa | - | - | - | - |
| 1777111027 | 15° C | 47% | 947.8 hPa | - | - | - | - |
| 1777110126 | 15° C | 48% | 947.8 hPa | - | - | - | - |
| 1777109226 | 14.44° C | 48% | 947.8 hPa | - | - | - | - |
| 1777108325 | 14.44° C | 49% | 947.9 hPa | - | - | - | - |
* Rain since midnight (hover to see other rain measurements)
** Current wind speed in m/s (hover to see current wind gust speed)